Time;durP1;ratioP1;P1;durP2;ratioP2;P2;SDS_P1;SDS_P2;PMS_P1;PMS_P2;Temp;Humidity;BMP_temperature;BMP_pressure;BME280_temperature;BME280_humidity;BME280_pressure;Samples;Min_cycle;Max_cycle;Signal;HPM_P1;HPM_P2
2021/06/10 00:00:16;;;;;;;17.42;15.93;;;19.30;99.90;;;;;;4951203;29;20237;-82
2021/06/10 00:02:43;;;;;;;17.52;15.80;;;19.20;99.90;;;;;;4968542;28;20266;-83
2021/06/10 00:05:11;;;;;;;18.25;16.55;;;19.10;99.90;;;;;;4968852;29;20636;-83
2021/06/10 00:07:39;;;;;;;18.95;17.25;;;18.90;99.90;;;;;;4953962;29;20202;-83
2021/06/10 00:10:08;;;;;;;17.75;16.13;;;18.90;99.90;;;;;;4972200;29;20187;-84
2021/06/10 00:12:35;;;;;;;19.17;17.50;;;18.90;99.90;;;;;;4954608;29;20257;-83
2021/06/10 00:15:06;;;;;;;17.52;16.10;;;18.80;99.90;;;;;;4955029;29;20495;-84
2021/06/10 00:17:33;;;;;;;18.13;16.42;;;18.80;99.90;;;;;;4955633;29;20265;-84
2021/06/10 00:20:00;;;;;;;16.88;15.40;;;18.70;99.90;;;;;;4954844;29;20238;-84
2021/06/10 00:22:27;;;;;;;21.40;17.05;;;18.60;99.90;;;;;;4949824;29;20223;-84
2021/06/10 00:24:53;;;;;;;18.45;16.77;;;18.70;99.90;;;;;;4920473;29;20222;-83
2021/06/10 00:27:21;;;;;;;16.45;14.95;;;18.80;99.90;;;;;;4953542;29;20199;-84
2021/06/10 00:29:48;;;;;;;18.42;16.83;;;18.70;99.90;;;;;;4935279;29;20216;-84
2021/06/10 00:32:17;;;;;;;18.38;16.67;;;18.70;99.90;;;;;;4953207;29;20215;-84
2021/06/10 00:34:45;;;;;;;17.33;15.88;;;18.80;99.90;;;;;;4935731;29;20211;-84
2021/06/10 00:37:12;;;;;;;16.52;14.93;;;18.90;99.90;;;;;;4952946;29;20207;-84
2021/06/10 00:39:39;;;;;;;16.05;14.73;;;19.00;99.90;;;;;;4959627;29;20226;-84
2021/06/10 00:42:07;;;;;;;17.02;15.70;;;19.00;99.90;;;;;;4954633;29;20214;-84
2021/06/10 00:44:35;;;;;;;18.15;16.40;;;19.10;99.90;;;;;;4972763;29;20214;-84
2021/06/10 00:47:02;;;;;;;18.30;16.65;;;19.20;99.90;;;;;;4972421;28;20207;-84
2021/06/10 00:49:30;;;;;;;19.60;17.77;;;19.00;99.90;;;;;;4941500;29;20196;-84
2021/06/10 00:51:57;;;;;;;20.80;18.80;;;19.10;99.90;;;;;;4952615;29;20229;-84
2021/06/10 00:54:24;;;;;;;21.35;19.48;;;19.20;99.90;;;;;;4952740;29;20214;-84
2021/06/10 00:56:52;;;;;;;20.77;18.92;;;19.00;99.90;;;;;;4948130;29;20256;-84
2021/06/10 00:59:19;;;;;;;19.58;17.48;;;18.90;99.90;;;;;;4954331;29;20227;-84
2021/06/10 01:01:46;;;;;;;18.88;17.20;;;18.80;99.90;;;;;;4954709;29;20219;-84
2021/06/10 01:04:13;;;;;;;16.58;15.23;;;18.80;99.90;;;;;;4954058;29;20226;-84
2021/06/10 01:06:50;;;;;;;17.85;16.35;;;18.60;99.90;;;;;;4955175;28;20218;-84
2021/06/10 01:09:24;;;;;;;18.20;16.50;;;18.60;99.90;;;;;;4969551;28;21233;-84
2021/06/10 01:11:57;;;;;;;18.02;16.38;;;18.60;99.90;;;;;;4936156;29;20219;-84
2021/06/10 01:14:33;;;;;;;15.95;14.45;;;18.50;99.90;;;;;;4936128;29;20199;-84
2021/06/10 01:17:02;;;;;;;17.17;15.45;;;18.50;99.90;;;;;;4953857;29;20278;-84
2021/06/10 01:19:49;;;;;;;17.75;15.95;;;18.50;99.90;;;;;;4935021;29;20263;-84
2021/06/10 01:22:35;;;;;;;18.75;16.98;;;18.40;99.90;;;;;;4936186;29;20227;-84
2021/06/10 01:25:13;;;;;;;16.75;15.07;;;18.50;99.90;;;;;;4934815;29;20333;-84
2021/06/10 01:27:43;;;;;;;18.60;16.80;;;18.30;99.90;;;;;;4951617;29;20203;-84
2021/06/10 01:30:14;;;;;;;18.13;16.60;;;18.40;99.90;;;;;;4935046;29;20206;-84
2021/06/10 01:32:45;;;;;;;20.10;18.30;;;18.40;99.90;;;;;;4951583;29;20259;-83
2021/06/10 01:35:14;;;;;;;19.27;17.55;;;18.50;99.90;;;;;;4934152;29;20614;-83
2021/06/10 01:37:42;;;;;;;18.73;17.02;;;18.50;99.90;;;;;;4933754;29;20204;-83
2021/06/10 01:40:11;;;;;;;19.73;17.83;;;18.40;99.90;;;;;;4950850;29;20590;-82
2021/06/10 01:42:39;;;;;;;18.10;16.23;;;18.40;99.90;;;;;;4933597;29;20625;-83
2021/06/10 01:45:10;;;;;;;19.08;17.40;;;18.20;99.90;;;;;;4933879;29;20218;-82
2021/06/10 01:47:39;;;;;;;18.40;16.70;;;18.20;99.90;;;;;;4951243;29;20204;-83
2021/06/10 01:50:08;;;;;;;17.17;15.57;;;18.20;99.90;;;;;;4950803;29;20206;-83
2021/06/10 01:52:36;;;;;;;18.13;16.65;;;18.10;99.90;;;;;;4951544;29;20223;-83
2021/06/10 01:55:05;;;;;;;19.08;16.83;;;18.10;99.90;;;;;;4951905;29;20206;-81
2021/06/10 01:57:33;;;;;;;18.55;16.95;;;18.20;99.90;;;;;;4933413;29;20208;-82
2021/06/10 02:00:01;;;;;;;21.40;19.50;;;18.10;99.90;;;;;;4926724;29;20239;-83
2021/06/10 02:02:29;;;;;;;19.92;18.30;;;18.30;99.90;;;;;;4952471;29;20254;-83
2021/06/10 02:04:57;;;;;;;22.40;20.40;;;18.20;99.90;;;;;;4935632;29;20207;-83
2021/06/10 02:07:24;;;;;;;20.35;18.42;;;18.20;99.90;;;;;;4952110;29;20216;-82
2021/06/10 02:09:51;;;;;;;20.48;18.58;;;18.10;99.90;;;;;;4951361;29;20232;-83
2021/06/10 02:12:18;;;;;;;18.85;17.13;;;18.10;99.90;;;;;;4935952;29;20262;-83
2021/06/10 02:14:46;;;;;;;21.38;19.58;;;18.10;99.90;;;;;;4938967;29;20199;-82
2021/06/10 02:17:15;;;;;;;20.98;18.98;;;18.10;99.90;;;;;;4924066;29;21608;-83
2021/06/10 02:19:44;;;;;;;22.50;20.42;;;18.00;99.90;;;;;;4959369;29;20279;-83
2021/06/10 02:22:11;;;;;;;24.30;21.95;;;17.90;99.90;;;;;;4937119;29;20224;-83
2021/06/10 02:24:38;;;;;;;21.85;19.95;;;17.80;99.90;;;;;;4955102;29;20203;-83
2021/06/10 02:27:05;;;;;;;20.23;18.27;;;17.80;99.90;;;;;;4938207;29;20230;-83
2021/06/10 02:29:32;;;;;;;19.92;18.27;;;17.70;99.90;;;;;;4938085;29;20204;-83
2021/06/10 02:31:58;;;;;;;21.83;19.92;;;17.70;99.90;;;;;;4960272;23;20228;-82
2021/06/10 02:34:25;;;;;;;19.25;17.52;;;17.80;99.90;;;;;;4924344;29;20287;-81
2021/06/10 02:36:53;;;;;;;22.13;20.23;;;18.00;99.90;;;;;;4922905;29;20223;-81
2021/06/10 02:39:21;;;;;;;19.35;17.52;;;18.00;99.90;;;;;;4923857;29;20219;-83
2021/06/10 02:41:52;;;;;;;19.27;17.73;;;17.90;99.90;;;;;;4937725;29;20216;-82
2021/06/10 02:44:20;;;;;;;18.38;16.75;;;17.80;99.90;;;;;;4929613;29;20201;-82
2021/06/10 02:46:48;;;;;;;17.95;16.35;;;17.70;99.90;;;;;;4928075;29;20264;-83
2021/06/10 02:49:17;;;;;;;18.02;16.42;;;17.70;99.90;;;;;;4926973;29;20192;-82
2021/06/10 02:51:44;;;;;;;17.83;16.02;;;17.70;99.90;;;;;;4924725;29;20573;-82
2021/06/10 02:54:17;;;;;;;16.20;14.77;;;17.70;99.90;;;;;;4925607;29;20203;-82
2021/06/10 02:56:46;;;;;;;16.73;15.23;;;17.70;99.90;;;;;;4908092;29;20200;-83
2021/06/10 02:59:16;;;;;;;17.67;14.95;;;17.70;99.90;;;;;;4926294;29;20598;-82
2021/06/10 03:01:45;;;;;;;16.08;14.57;;;17.60;99.90;;;;;;4914088;29;20225;-83
2021/06/10 03:04:14;;;;;;;16.70;15.30;;;17.60;99.90;;;;;;4907950;29;20200;-81
2021/06/10 03:06:42;;;;;;;15.27;13.80;;;17.70;99.90;;;;;;4891006;29;20220;-83
2021/06/10 03:09:09;;;;;;;15.45;13.88;;;17.70;99.90;;;;;;4906781;29;20223;-80
2021/06/10 03:11:39;;;;;;;16.45;14.95;;;17.70;99.90;;;;;;4887314;29;20680;-80
2021/06/10 03:14:08;;;;;;;15.32;14.00;;;17.60;99.90;;;;;;4904326;29;20284;-81
2021/06/10 03:16:36;;;;;;;16.42;14.93;;;17.60;99.90;;;;;;4903608;29;20215;-81
2021/06/10 03:19:03;;;;;;;16.92;15.10;;;17.70;99.90;;;;;;4872821;29;20201;-82
2021/06/10 03:21:30;;;;;;;14.27;13.05;;;17.70;99.90;;;;;;4873791;29;20236;-82
2021/06/10 03:23:57;;;;;;;14.30;13.00;;;17.70;99.90;;;;;;4887681;29;20664;-82
2021/06/10 03:26:25;;;;;;;16.15;14.60;;;17.70;99.90;;;;;;4904726;29;20207;-82
2021/06/10 03:28:54;;;;;;;17.75;15.35;;;17.70;99.90;;;;;;4904611;29;20579;-82
2021/06/10 03:31:21;;;;;;;15.88;14.35;;;17.60;99.90;;;;;;4903801;29;20333;-82
2021/06/10 03:33:50;;;;;;;17.67;14.55;;;17.60;99.90;;;;;;4887521;29;20212;-82
2021/06/10 03:36:17;;;;;;;18.25;15.07;;;17.60;99.90;;;;;;4904410;29;20272;-80
2021/06/10 03:38:45;;;;;;;16.60;15.07;;;17.60;99.90;;;;;;4903717;29;20295;-81
2021/06/10 03:41:14;;;;;;;16.55;15.07;;;17.60;99.90;;;;;;4885939;29;20269;-82
2021/06/10 03:43:42;;;;;;;19.35;17.30;;;17.70;99.90;;;;;;4905241;29;20232;-82
2021/06/10 03:46:11;;;;;;;16.90;15.50;;;17.70;99.90;;;;;;4904712;29;20691;-83
2021/06/10 03:48:39;;;;;;;15.88;14.48;;;17.60;99.90;;;;;;4907922;29;20267;-81
2021/06/10 03:51:10;;;;;;;17.23;15.52;;;17.60;99.90;;;;;;4907155;29;20201;-82
2021/06/10 03:53:38;;;;;;;16.90;15.50;;;17.60;99.90;;;;;;4904487;29;20207;-84
2021/06/10 03:56:05;;;;;;;18.23;16.48;;;17.60;99.90;;;;;;4888731;29;20228;-81
2021/06/10 03:58:32;;;;;;;17.48;15.90;;;17.70;99.90;;;;;;4888285;29;20201;-79
2021/06/10 04:00:59;;;;;;;17.10;15.60;;;17.70;99.90;;;;;;4905761;29;20249;-82
2021/06/10 04:03:27;;;;;;;20.65;18.50;;;17.70;99.90;;;;;;4907026;29;20291;-82
2021/06/10 04:05:54;;;;;;;19.38;17.65;;;17.70;99.90;;;;;;4905592;29;20205;-82
2021/06/10 04:08:21;;;;;;;20.95;18.80;;;17.80;99.90;;;;;;4873471;29;20208;-82
2021/06/10 04:10:48;;;;;;;21.15;19.35;;;17.90;99.90;;;;;;4914019;29;20204;-82
2021/06/10 04:13:15;;;;;;;21.52;19.30;;;18.00;99.90;;;;;;4918194;29;20676;-82
2021/06/10 04:15:42;;;;;;;22.30;19.85;;;17.80;99.90;;;;;;4905857;29;20220;-82
2021/06/10 04:18:09;;;;;;;20.45;18.45;;;17.80;99.90;;;;;;4906664;29;20197;-81
2021/06/10 04:20:37;;;;;;;21.73;19.50;;;17.70;99.90;;;;;;4904481;29;20231;-82
2021/06/10 04:23:04;;;;;;;21.38;19.25;;;17.70;99.90;;;;;;4913010;29;20216;-79
2021/06/10 04:25:31;;;;;;;23.48;20.88;;;17.70;99.90;;;;;;4891995;29;20676;-84
2021/06/10 04:27:58;;;;;;;21.38;19.67;;;17.80;99.90;;;;;;4924819;29;20224;-82
2021/06/10 04:30:25;;;;;;;22.58;20.52;;;17.80;99.90;;;;;;4923979;29;20200;-82
2021/06/10 04:32:52;;;;;;;21.52;19.42;;;17.80;99.90;;;;;;4905540;29;20645;-84
2021/06/10 04:35:18;;;;;;;23.98;21.27;;;17.90;99.90;;;;;;4890065;29;20627;-82
2021/06/10 04:37:46;;;;;;;23.65;21.48;;;18.00;99.90;;;;;;4900667;29;20264;-80
2021/06/10 04:40:15;;;;;;;24.73;22.23;;;17.80;99.90;;;;;;4923950;29;20233;-83
2021/06/10 04:42:42;;;;;;;24.30;22.00;;;17.70;99.90;;;;;;4906844;29;20235;-82
2021/06/10 04:45:10;;;;;;;23.48;21.40;;;17.60;99.90;;;;;;4923275;29;20208;-81
2021/06/10 04:47:37;;;;;;;23.63;21.50;;;17.60;99.90;;;;;;4923631;29;20204;-83
2021/06/10 04:50:05;;;;;;;27.13;21.70;;;17.70;99.90;;;;;;4921741;29;20228;-80
2021/06/10 04:52:32;;;;;;;23.92;21.65;;;17.80;99.90;;;;;;4924163;29;20252;-83
2021/06/10 04:55:00;;;;;;;26.27;23.77;;;17.80;99.90;;;;;;4927097;29;20211;-83
2021/06/10 04:57:30;;;;;;;24.10;21.60;;;17.60;99.90;;;;;;4908995;29;20651;-80
2021/06/10 04:59:57;;;;;;;23.20;21.05;;;17.50;99.90;;;;;;4926121;29;20224;-83
2021/06/10 05:02:24;;;;;;;23.70;21.60;;;17.60;99.90;;;;;;4925042;29;20235;-81
2021/06/10 05:04:51;;;;;;;25.77;23.27;;;17.60;99.90;;;;;;4908324;29;20574;-82
2021/06/10 05:07:18;;;;;;;23.20;21.08;;;17.70;99.90;;;;;;4891543;29;20256;-82
2021/06/10 05:09:45;;;;;;;22.65;20.65;;;17.90;99.90;;;;;;4892580;29;20189;-81
2021/06/10 05:12:13;;;;;;;24.98;22.63;;;18.10;99.90;;;;;;4911574;29;20212;-81
2021/06/10 05:14:40;;;;;;;20.65;18.52;;;18.10;99.90;;;;;;4911485;29;20225;-81
2021/06/10 05:17:06;;;;;;;19.08;17.20;;;18.10;99.90;;;;;;4909688;29;20702;-81
2021/06/10 05:19:33;;;;;;;21.48;19.52;;;18.10;99.90;;;;;;4926934;29;20232;-82
2021/06/10 05:22:00;;;;;;;20.20;18.48;;;18.30;99.90;;;;;;4927196;29;20407;-81
2021/06/10 05:24:28;;;;;;;19.08;17.23;;;18.40;99.90;;;;;;4892955;29;20659;-82
2021/06/10 05:26:54;;;;;;;17.63;16.15;;;18.60;99.90;;;;;;4927843;29;20267;-82
2021/06/10 05:29:22;;;;;;;18.13;16.27;;;18.70;99.90;;;;;;4897542;29;20230;-85
2021/06/10 05:31:49;;;;;;;17.70;16.00;;;18.70;99.90;;;;;;4911431;29;20239;-82
2021/06/10 05:34:16;;;;;;;17.88;16.27;;;18.70;99.90;;;;;;4912703;29;20204;-84
2021/06/10 05:36:43;;;;;;;17.08;15.68;;;18.60;99.90;;;;;;4931983;29;20200;-82
2021/06/10 05:39:10;;;;;;;17.73;16.23;;;18.70;99.90;;;;;;4932682;29;20200;-83
2021/06/10 05:41:37;;;;;;;18.25;16.45;;;18.70;99.90;;;;;;4930341;29;20245;-83
2021/06/10 05:44:05;;;;;;;17.42;15.73;;;18.70;99.90;;;;;;4913101;29;20253;-80
2021/06/10 05:46:33;;;;;;;16.17;14.77;;;18.70;99.90;;;;;;4927666;29;20232;-82
2021/06/10 05:49:00;;;;;;;17.15;15.45;;;18.80;99.90;;;;;;4923493;29;20213;-81
2021/06/10 05:51:27;;;;;;;16.40;14.93;;;18.90;99.90;;;;;;4910162;29;20217;-81
2021/06/10 05:53:53;;;;;;;17.65;16.15;;;19.30;99.90;;;;;;4908567;29;20264;-82
2021/06/10 05:56:20;;;;;;;17.40;15.60;;;19.40;99.90;;;;;;4907757;29;20209;-81
2021/06/10 05:58:47;;;;;;;20.08;18.17;;;19.60;99.90;;;;;;4908491;29;20200;-80
2021/06/10 06:01:14;;;;;;;17.92;16.10;;;19.70;99.90;;;;;;4889885;29;20602;-80
2021/06/10 06:03:44;;;;;;;17.67;16.00;;;19.50;99.90;;;;;;4906378;29;20302;-82
2021/06/10 06:06:11;;;;;;;19.35;17.52;;;19.50;99.90;;;;;;4905960;29;20229;-78
2021/06/10 06:08:39;;;;;;;17.00;15.45;;;19.70;99.90;;;;;;4913000;29;20192;-81
2021/06/10 06:11:05;;;;;;;18.35;16.67;;;19.80;99.90;;;;;;4914073;29;20284;-81
2021/06/10 06:13:43;;;;;;;18.80;17.10;;;20.00;99.90;;;;;;4918650;29;20216;-86
2021/06/10 06:16:11;;;;;;;20.88;15.32;;;20.20;99.90;;;;;;4925083;29;20192;-86
2021/06/10 06:18:39;;;;;;;17.55;16.02;;;20.20;99.90;;;;;;4917833;29;20181;-83
2021/06/10 06:21:07;;;;;;;18.13;16.52;;;20.20;99.90;;;;;;4928436;29;20204;-82
2021/06/10 06:23:34;;;;;;;18.80;17.00;;;20.40;99.90;;;;;;4927136;29;20547;-86
2021/06/10 06:26:01;;;;;;;19.10;17.30;;;20.50;99.90;;;;;;4940273;29;20208;-86
2021/06/10 06:28:29;;;;;;;17.70;15.90;;;20.50;99.90;;;;;;4926833;29;20207;-83
2021/06/10 06:30:55;;;;;;;18.92;17.15;;;20.60;99.90;;;;;;4926340;29;20214;-81
2021/06/10 06:33:23;;;;;;;19.63;17.92;;;20.60;99.90;;;;;;4901532;29;20192;-81
2021/06/10 06:35:49;;;;;;;18.98;17.27;;;20.70;99.90;;;;;;4914179;29;20207;-81
2021/06/10 06:38:18;;;;;;;16.85;15.45;;;20.70;99.90;;;;;;4923483;29;20210;-81
2021/06/10 06:40:45;;;;;;;19.02;17.27;;;20.70;99.90;;;;;;4918549;29;20628;-81
2021/06/10 06:43:13;;;;;;;19.45;17.67;;;20.90;99.90;;;;;;4919587;29;20219;-81
2021/06/10 06:45:41;;;;;;;18.23;16.63;;;21.20;99.90;;;;;;4913618;29;20228;-79
2021/06/10 06:48:08;;;;;;;17.90;16.40;;;21.10;99.90;;;;;;4911847;29;20200;-80
2021/06/10 06:50:36;;;;;;;18.60;16.83;;;21.30;99.90;;;;;;4920094;29;20212;-81
2021/06/10 06:53:03;;;;;;;19.75;17.85;;;21.30;99.90;;;;;;4919648;29;20762;-78
2021/06/10 06:55:31;;;;;;;16.52;15.02;;;21.40;99.90;;;;;;4911170;29;20196;-79
2021/06/10 06:57:58;;;;;;;18.25;16.60;;;21.40;99.90;;;;;;4906666;29;20200;-82
2021/06/10 07:00:25;;;;;;;17.70;16.10;;;21.50;99.90;;;;;;4908940;29;20291;-79
2021/06/10 07:02:52;;;;;;;17.10;15.60;;;21.60;99.90;;;;;;4927119;29;20740;-79
2021/06/10 07:05:19;;;;;;;18.05;16.08;;;21.70;99.90;;;;;;4887008;29;20694;-78
2021/06/10 07:07:45;;;;;;;17.38;15.98;;;21.90;99.90;;;;;;4896177;29;20228;-78
2021/06/10 07:10:13;;;;;;;19.30;17.70;;;21.90;99.90;;;;;;4899320;29;20212;-81
2021/06/10 07:12:41;;;;;;;18.42;16.90;;;22.00;99.90;;;;;;4911998;29;20233;-82
2021/06/10 07:15:09;;;;;;;18.20;15.65;;;21.90;99.90;;;;;;4902346;29;20200;-79
2021/06/10 07:17:36;;;;;;;20.50;18.48;;;21.90;99.90;;;;;;4902112;29;20235;-80
2021/06/10 07:20:04;;;;;;;17.45;15.77;;;22.20;99.90;;;;;;4912543;29;20747;-82
2021/06/10 07:22:31;;;;;;;19.00;17.13;;;22.00;99.90;;;;;;4913983;29;20220;-82
2021/06/10 07:24:58;;;;;;;19.20;17.50;;;22.20;99.90;;;;;;4932574;29;20208;-85
2021/06/10 07:27:26;;;;;;;15.88;14.50;;;22.40;99.90;;;;;;4924113;29;20199;-82
2021/06/10 07:29:56;;;;;;;16.23;14.82;;;22.50;99.90;;;;;;4954149;28;20211;-81
2021/06/10 07:32:23;;;;;;;17.10;15.45;;;22.50;99.90;;;;;;4933858;29;20231;-81
2021/06/10 07:34:50;;;;;;;17.67;16.17;;;22.70;99.90;;;;;;4932336;29;20211;-83
2021/06/10 07:37:17;;;;;;;15.75;14.45;;;22.70;99.90;;;;;;4929975;29;20228;-85
2021/06/10 07:39:43;;;;;;;17.45;15.90;;;22.80;99.90;;;;;;4925355;29;20280;-84
2021/06/10 07:42:11;;;;;;;16.52;15.10;;;22.90;99.90;;;;;;4902011;29;20220;-83
2021/06/10 07:44:38;;;;;;;17.58;16.08;;;23.10;99.90;;;;;;4930254;29;20211;-83
2021/06/10 07:47:06;;;;;;;17.95;16.45;;;23.30;99.90;;;;;;4909366;29;20459;-81
2021/06/10 07:49:33;;;;;;;17.77;16.17;;;23.30;99.90;;;;;;4928346;29;20710;-84
2021/06/10 07:52:01;;;;;;;17.75;16.15;;;23.30;99.90;;;;;;4892683;29;20224;-83
2021/06/10 07:54:28;;;;;;;18.75;16.75;;;23.50;99.90;;;;;;4909648;29;20228;-84
2021/06/10 07:56:55;;;;;;;20.13;18.52;;;23.40;99.90;;;;;;4923902;29;20209;-88
2021/06/10 07:59:25;;;;;;;17.25;15.75;;;23.40;99.90;;;;;;4894718;29;20592;-85
2021/06/10 08:01:53;;;;;;;17.13;15.60;;;23.70;99.90;;;;;;4895307;29;20362;-83
2021/06/10 08:04:21;;;;;;;17.70;16.00;;;23.70;99.90;;;;;;4908273;29;20216;-81
2021/06/10 08:06:49;;;;;;;18.85;17.17;;;23.90;99.90;;;;;;4924145;29;20233;-83
2021/06/10 08:09:16;;;;;;;17.40;15.77;;;23.70;99.90;;;;;;4918733;29;20204;-84
2021/06/10 08:11:45;;;;;;;19.05;17.10;;;24.00;99.90;;;;;;4915887;29;20754;-87
2021/06/10 08:14:12;;;;;;;18.20;16.25;;;24.00;99.90;;;;;;4918553;29;20208;-85
2021/06/10 08:16:39;;;;;;;17.40;15.90;;;24.60;99.90;;;;;;4918237;29;20204;-83
2021/06/10 08:19:06;;;;;;;17.38;15.82;;;24.40;99.90;;;;;;4908043;29;20219;-88
2021/06/10 08:21:34;;;;;;;16.65;15.25;;;24.40;99.90;;;;;;4927920;29;20243;-81
2021/06/10 08:24:02;;;;;;;17.27;15.52;;;24.40;99.90;;;;;;4925201;29;20240;-84
2021/06/10 08:26:29;;;;;;;16.33;15.05;;;24.50;99.90;;;;;;4911981;29;20634;-82
2021/06/10 08:28:56;;;;;;;17.30;15.90;;;24.60;99.90;;;;;;4918578;29;20270;-86
2021/06/10 08:31:29;;;;;;;18.98;17.38;;;24.60;99.90;;;;;;4925986;29;20244;-79
2021/06/10 08:33:56;;;;;;;18.05;16.35;;;24.60;99.90;;;;;;4917000;29;20226;-38
2021/06/10 08:36:23;;;;;;;16.35;15.05;;;24.50;99.90;;;;;;4915568;29;20278;-37
2021/06/10 08:38:51;;;;;;;18.08;15.88;;;24.50;99.90;;;;;;4915906;29;20282;-39
2021/06/10 08:41:18;;;;;;;18.02;16.50;;;24.50;99.90;;;;;;4913831;29;20220;-38
2021/06/10 08:43:45;;;;;;;15.45;14.07;;;24.50;99.90;;;;;;4914665;29;20226;-38
2021/06/10 08:46:13;;;;;;;19.95;18.35;;;24.60;99.90;;;;;;4923578;23;20209;-37
2021/06/10 08:48:42;;;;;;;18.63;17.08;;;24.90;99.90;;;;;;4932069;29;20230;-39
2021/06/10 08:51:11;;;;;;;18.63;17.02;;;25.10;99.90;;;;;;4933575;29;20255;-37
2021/06/10 08:53:39;;;;;;;18.45;16.63;;;25.10;99.90;;;;;;4923265;29;20207;-39
2021/06/10 08:56:07;;;;;;;20.02;18.23;;;25.30;99.90;;;;;;4922705;29;20693;-37
2021/06/10 08:58:34;;;;;;;19.63;17.98;;;25.50;99.90;;;;;;4931375;29;20300;-38
2021/06/10 09:01:01;;;;;;;19.95;18.38;;;25.20;99.90;;;;;;4933731;29;20600;-40
2021/06/10 09:03:31;;;;;;;18.63;16.92;;;25.10;99.90;;;;;;4932627;29;20287;-38
2021/06/10 09:06:03;;;;;;;22.80;20.70;;;25.30;99.90;;;;;;4934696;29;20208;-41
2021/06/10 09:08:31;;;;;;;20.17;18.20;;;25.60;99.90;;;;;;4925620;29;20705;-42
2021/06/10 09:11:07;;;;;;;19.65;17.75;;;25.50;99.90;;;;;;4933917;29;20203;-39
2021/06/10 09:13:39;;;;;;;21.08;19.27;;;25.40;99.90;;;;;;4930667;29;20572;-36
2021/06/10 09:16:23;;;;;;;20.77;18.45;;;25.60;99.90;;;;;;4928279;29;20685;-39
2021/06/10 09:18:51;;;;;;;22.23;20.20;;;25.30;99.90;;;;;;4934181;29;20207;-39
2021/06/10 09:21:25;;;;;;;21.25;19.33;;;25.20;99.90;;;;;;4924069;29;20728;-38
2021/06/10 09:23:52;;;;;;;21.92;20.02;;;25.00;99.90;;;;;;4928345;29;20720;-39
2021/06/10 09:26:20;;;;;;;21.77;19.88;;;25.10;99.90;;;;;;4930947;29;20596;-40
2021/06/10 09:28:51;;;;;;;21.85;19.95;;;25.10;99.90;;;;;;4926244;29;20200;-41
2021/06/10 09:31:32;;;;;;;21.83;19.92;;;25.20;99.90;;;;;;4931911;29;20593;-38
2021/06/10 09:34:02;;;;;;;22.10;20.10;;;25.50;99.90;;;;;;4927683;29;20203;-39
2021/06/10 09:36:29;;;;;;;21.38;19.25;;;25.50;99.90;;;;;;4930351;29;20227;-39
2021/06/10 09:39:04;;;;;;;21.67;19.77;;;25.30;99.90;;;;;;4925198;29;20209;-39
2021/06/10 09:41:32;;;;;;;21.15;19.45;;;25.30;99.90;;;;;;4934259;29;20345;-39
2021/06/10 09:43:58;;;;;;;21.83;18.83;;;25.10;99.90;;;;;;4934560;29;20678;-38
2021/06/10 09:46:25;;;;;;;20.52;18.73;;;25.20;99.90;;;;;;4932703;29;20713;-39
2021/06/10 09:49:04;;;;;;;18.55;16.92;;;25.50;99.90;;;;;;4925424;29;20191;-37
2021/06/10 09:51:30;;;;;;;17.23;15.73;;;25.60;99.90;;;;;;4933659;29;20206;-39
2021/06/10 09:53:58;;;;;;;20.23;18.20;;;25.70;99.90;;;;;;4923556;29;20757;-38
2021/06/10 09:56:26;;;;;;;20.23;18.42;;;25.80;99.90;;;;;;4929364;29;20224;-38
2021/06/10 09:58:57;;;;;;;19.88;18.05;;;25.90;99.90;;;;;;4927722;29;20218;-38
2021/06/10 10:01:24;;;;;;;19.30;17.58;;;26.00;99.90;;;;;;4917681;29;20228;-38
2021/06/10 10:03:53;;;;;;;20.60;18.70;;;26.10;99.90;;;;;;4921812;29;20286;-40
2021/06/10 10:06:23;;;;;;;17.05;15.75;;;26.00;99.90;;;;;;4931548;29;20306;-39
2021/06/10 10:08:52;;;;;;;17.42;15.93;;;25.90;99.90;;;;;;4934464;29;20204;-39
2021/06/10 10:11:23;;;;;;;18.15;16.42;;;25.70;99.90;;;;;;4935197;29;20203;-39
2021/06/10 10:13:52;;;;;;;20.27;18.27;;;25.80;99.90;;;;;;4934347;29;20199;-38
2021/06/10 10:16:23;;;;;;;14.70;13.25;;;26.00;99.90;;;;;;4931199;29;20717;-39
2021/06/10 10:18:51;;;;;;;10.07;9.00;;;26.10;99.90;;;;;;4918156;29;20204;-41
2021/06/10 10:21:25;;;;;;;9.57;8.63;;;26.00;99.90;;;;;;4919159;29;20262;-37
2021/06/10 10:23:55;;;;;;;8.73;7.93;;;26.00;99.90;;;;;;4933559;29;20688;-38
2021/06/10 10:26:22;;;;;;;8.10;7.30;;;26.20;99.90;;;;;;4937330;29;20644;-41
2021/06/10 10:28:50;;;;;;;6.88;6.38;;;26.30;99.90;;;;;;4933896;29;20677;-38
2021/06/10 10:31:17;;;;;;;5.68;5.05;;;26.30;99.90;;;;;;4933750;29;20677;-41
2021/06/10 10:33:46;;;;;;;6.32;5.78;;;26.30;99.90;;;;;;4934284;29;20196;-38
2021/06/10 10:36:23;;;;;;;4.60;4.30;;;26.20;99.90;;;;;;4933137;29;20192;-40
2021/06/10 10:39:00;;;;;;;7.43;4.40;;;26.30;99.90;;;;;;4919507;29;20670;-38
2021/06/10 10:41:28;;;;;;;4.47;4.07;;;26.40;99.90;;;;;;4932040;29;20648;-39
2021/06/10 10:44:08;;;;;;;4.72;4.32;;;26.40;99.90;;;;;;4932807;29;20195;-38
2021/06/10 10:46:35;;;;;;;3.92;3.53;;;26.70;99.90;;;;;;4933951;29;20226;-39
2021/06/10 10:49:20;;;;;;;3.50;3.25;;;26.80;99.90;;;;;;4918686;29;20650;-38
2021/06/10 10:51:47;;;;;;;2.92;2.72;;;26.70;99.90;;;;;;4931158;29;20206;-38
2021/06/10 10:54:32;;;;;;;4.75;4.35;;;26.60;99.90;;;;;;4914917;29;20231;-39
2021/06/10 10:56:59;;;;;;;3.63;3.28;;;26.60;99.90;;;;;;4924446;29;20230;-39
2021/06/10 10:59:25;;;;;;;6.53;4.72;;;26.60;99.90;;;;;;4927132;29;20655;-39
2021/06/10 11:02:05;;;;;;;7.60;6.90;;;26.70;99.90;;;;;;4914371;29;20227;-39
2021/06/10 11:04:51;;;;;;;7.25;6.30;;;26.70;99.90;;;;;;4930470;29;20211;-38
2021/06/10 11:07:52;;;;;;;6.38;5.88;;;26.70;99.90;;;;;;4933641;29;20259;-38
2021/06/10 11:11:00;;;;;;;7.32;5.55;;;26.80;99.90;;;;;;4923036;29;20196;-39
2021/06/10 11:13:27;;;;;;;6.78;6.18;;;26.90;99.90;;;;;;4928876;29;20223;-38
2021/06/10 11:15:56;;;;;;;5.80;5.30;;;27.20;99.90;;;;;;4932207;29;20292;-39
2021/06/10 11:18:42;;;;;;;4.72;4.18;;;27.50;99.90;;;;;;4929046;29;20617;-39
2021/06/10 11:21:12;;;;;;;7.38;6.47;;;27.60;99.90;;;;;;4927537;29;20226;-39
2021/06/10 11:23:39;;;;;;;7.20;5.32;;;27.40;99.90;;;;;;4927982;29;20215;-38
2021/06/10 11:26:17;;;;;;;7.10;6.50;;;27.20;99.90;;;;;;4927260;29;20685;-40
2021/06/10 11:28:59;;;;;;;6.28;5.55;;;27.40;99.90;;;;;;4928364;29;20274;-41
2021/06/10 11:31:28;;;;;;;9.38;6.07;;;27.60;99.90;;;;;;4925315;29;20199;-39
2021/06/10 11:33:55;;;;;;;6.13;5.60;;;27.80;99.90;;;;;;4930062;29;20195;-39
2021/06/10 11:36:22;;;;;;;6.95;6.22;;;28.00;99.90;;;;;;4921375;29;20280;-39
2021/06/10 11:38:52;;;;;;;8.50;7.60;;;28.00;99.90;;;;;;4927047;29;20231;-38
2021/06/10 11:41:22;;;;;;;6.25;5.47;;;27.80;99.90;;;;;;4926760;28;20231;-38
2021/06/10 11:43:55;;;;;;;6.25;5.75;;;27.60;99.90;;;;;;4933584;29;20203;-40
2021/06/10 11:46:30;;;;;;;6.05;5.55;;;27.90;99.90;;;;;;4924296;29;20274;-38
2021/06/10 11:48:56;;;;;;;5.38;4.95;;;28.00;99.90;;;;;;4925874;29;20194;-38
2021/06/10 11:51:26;;;;;;;7.18;6.22;;;28.10;99.90;;;;;;4922761;29;20295;-39
2021/06/10 11:53:56;;;;;;;6.03;5.45;;;28.00;99.90;;;;;;4932721;29;20207;-41
2021/06/10 11:56:24;;;;;;;5.32;4.85;;;28.10;99.90;;;;;;4933273;29;20226;-39
2021/06/10 11:58:51;;;;;;;5.88;5.28;;;28.30;99.90;;;;;;4941331;28;20191;-38
2021/06/10 12:01:18;;;;;;;5.13;4.75;;;28.10;99.90;;;;;;4932689;29;20238;-40
2021/06/10 12:03:46;;;;;;;6.60;5.50;;;27.80;99.90;;;;;;4935776;29;20278;-39
2021/06/10 12:06:14;;;;;;;4.85;4.43;;;28.00;99.90;;;;;;4934701;29;20231;-39
2021/06/10 12:08:43;;;;;;;5.68;4.35;;;27.90;99.90;;;;;;4931095;29;20247;-39
2021/06/10 12:11:11;;;;;;;8.38;3.97;;;28.00;99.90;;;;;;4935227;29;20294;-38
2021/06/10 12:13:41;;;;;;;4.45;4.00;;;28.20;99.90;;;;;;4933509;29;20740;-38
2021/06/10 12:16:11;;;;;;;4.40;3.38;;;28.60;99.90;;;;;;4934174;29;20223;-38
2021/06/10 12:18:42;;;;;;;3.80;3.50;;;28.30;99.90;;;;;;4931289;29;20231;-38
2021/06/10 12:21:11;;;;;;;4.43;3.38;;;28.60;99.90;;;;;;4936452;29;20243;-38
2021/06/10 12:23:39;;;;;;;3.80;3.47;;;28.50;99.90;;;;;;4932362;29;20208;-37
2021/06/10 12:26:08;;;;;;;3.38;3.10;;;28.40;99.90;;;;;;4925596;29;20255;-38
2021/06/10 12:28:40;;;;;;;4.45;3.10;;;28.30;99.90;;;;;;4933336;29;20740;-36
2021/06/10 12:31:11;;;;;;;3.25;2.92;;;28.20;99.90;;;;;;4926696;29;20208;-38
2021/06/10 12:33:40;;;;;;;4.50;2.97;;;28.30;99.90;;;;;;4926485;29;20191;-37
2021/06/10 12:36:14;;;;;;;3.40;2.75;;;28.40;99.90;;;;;;4931653;29;20204;-37
2021/06/10 12:38:42;;;;;;;3.03;2.47;;;28.40;99.90;;;;;;4934894;29;20203;-37